sensor_id;sensor_type;location;lat;lon;timestamp;pressure;altitude;pressure_sealevel;temperature;humidity
60832;BME280;46665;51.558;-0.448;2022-07-29T00:01:28;101389.09;;;17.40;61.75
60832;BME280;46665;51.558;-0.448;2022-07-29T00:03:54;101380.31;;;17.38;61.77
60832;BME280;46665;51.558;-0.448;2022-07-29T00:06:20;101384.50;;;17.35;61.91
60832;BME280;46665;51.558;-0.448;2022-07-29T00:08:46;101391.63;;;17.36;62.27
60832;BME280;46665;51.558;-0.448;2022-07-29T00:11:11;101382.97;;;17.29;62.30
60832;BME280;46665;51.558;-0.448;2022-07-29T00:13:37;101378.00;;;17.31;62.19
60832;BME280;46665;51.558;-0.448;2022-07-29T00:16:03;101381.06;;;17.29;62.44
60832;BME280;46665;51.558;-0.448;2022-07-29T00:18:28;101373.41;;;17.26;62.80
60832;BME280;46665;51.558;-0.448;2022-07-29T00:20:54;101376.78;;;17.23;63.38
60832;BME280;46665;51.558;-0.448;2022-07-29T00:23:19;101373.22;;;17.23;62.98
60832;BME280;46665;51.558;-0.448;2022-07-29T00:25:45;101379.84;;;17.22;62.97
60832;BME280;46665;51.558;-0.448;2022-07-29T00:28:10;101370.28;;;17.19;63.55
60832;BME280;46665;51.558;-0.448;2022-07-29T00:30:36;101370.28;;;17.19;63.74
60832;BME280;46665;51.558;-0.448;2022-07-29T00:33:01;101359.59;;;17.18;64.02
60832;BME280;46665;51.558;-0.448;2022-07-29T00:35:27;101367.84;;;17.18;63.94
60832;BME280;46665;51.558;-0.448;2022-07-29T00:38:19;101362.50;;;17.21;64.31
60832;BME280;46665;51.558;-0.448;2022-07-29T00:40:46;101369.44;;;17.19;64.51
60832;BME280;46665;51.558;-0.448;2022-07-29T00:43:13;101364.88;;;17.14;64.91
60832;BME280;46665;51.558;-0.448;2022-07-29T00:45:39;101365.09;;;17.18;64.70
60832;BME280;46665;51.558;-0.448;2022-07-29T00:48:05;101355.63;;;17.10;65.35
60832;BME280;46665;51.558;-0.448;2022-07-29T00:50:32;101358.66;;;17.08;65.60
60832;BME280;46665;51.558;-0.448;2022-07-29T00:52:58;101363.16;;;17.04;65.74
60832;BME280;46665;51.558;-0.448;2022-07-29T00:55:24;101354.19;;;16.99;65.84
60832;BME280;46665;51.558;-0.448;2022-07-29T00:57:50;101357.06;;;16.94;66.59
60832;BME280;46665;51.558;-0.448;2022-07-29T01:00:18;101359.50;;;16.95;66.50
60832;BME280;46665;51.558;-0.448;2022-07-29T01:02:45;101354.41;;;16.88;67.36
60832;BME280;46665;51.558;-0.448;2022-07-29T01:05:13;101354.22;;;16.85;67.71
60832;BME280;46665;51.558;-0.448;2022-07-29T01:07:40;101352.59;;;16.84;67.25
60832;BME280;46665;51.558;-0.448;2022-07-29T01:10:07;101354.22;;;16.85;67.27
60832;BME280;46665;51.558;-0.448;2022-07-29T01:12:35;101350.66;;;16.84;67.57
60832;BME280;46665;51.558;-0.448;2022-07-29T01:15:04;101344.13;;;16.80;67.75
60832;BME280;46665;51.558;-0.448;2022-07-29T01:26:09;101355.69;;;16.63;68.90
60832;BME280;46665;51.558;-0.448;2022-07-29T01:34:02;101347.75;;;16.48;69.53
60832;BME280;46665;51.558;-0.448;2022-07-29T01:36:35;101352.84;;;16.41;70.22
60832;BME280;46665;51.558;-0.448;2022-07-29T01:39:19;101357.31;;;16.37;70.10
60832;BME280;46665;51.558;-0.448;2022-07-29T01:41:57;101347.84;;;16.29;70.63
60832;BME280;46665;51.558;-0.448;2022-07-29T01:44:32;101356.88;;;16.30;70.19
60832;BME280;46665;51.558;-0.448;2022-07-29T01:47:02;101354.22;;;16.24;70.60
60832;BME280;46665;51.558;-0.448;2022-07-29T01:49:34;101352.91;;;16.22;70.97
60832;BME280;46665;51.558;-0.448;2022-07-29T01:52:05;101360.44;;;16.16;71.31
60832;BME280;46665;51.558;-0.448;2022-07-29T01:54:40;101358.56;;;16.12;71.31
60832;BME280;46665;51.558;-0.448;2022-07-29T01:57:13;101353.56;;;16.00;71.68
60832;BME280;46665;51.558;-0.448;2022-07-29T01:59:41;101355.97;;;15.88;72.31
60832;BME280;46665;51.558;-0.448;2022-07-29T02:02:09;101352.78;;;15.80;72.67
60832;BME280;46665;51.558;-0.448;2022-07-29T02:04:37;101356.72;;;15.74;73.04
60832;BME280;46665;51.558;-0.448;2022-07-29T02:07:06;101350.03;;;15.61;73.59
60832;BME280;46665;51.558;-0.448;2022-07-29T02:09:35;101343.72;;;15.61;73.46
60832;BME280;46665;51.558;-0.448;2022-07-29T02:12:03;101350.69;;;15.53;73.71
60832;BME280;46665;51.558;-0.448;2022-07-29T02:14:40;101343.28;;;15.54;73.79
60832;BME280;46665;51.558;-0.448;2022-07-29T02:17:05;101341.44;;;15.49;73.88
60832;BME280;46665;51.558;-0.448;2022-07-29T02:19:32;101343.00;;;15.36;74.74
60832;BME280;46665;51.558;-0.448;2022-07-29T02:22:00;101342.13;;;15.22;75.47
60832;BME280;46665;51.558;-0.448;2022-07-29T02:24:28;101347.72;;;15.12;75.64
60832;BME280;46665;51.558;-0.448;2022-07-29T02:26:56;101349.19;;;15.04;76.00
60832;BME280;46665;51.558;-0.448;2022-07-29T02:29:25;101356.72;;;14.93;76.81
60832;BME280;46665;51.558;-0.448;2022-07-29T02:31:52;101353.00;;;14.84;77.02
60832;BME280;46665;51.558;-0.448;2022-07-29T02:34:20;101356.03;;;14.83;77.20
60832;BME280;46665;51.558;-0.448;2022-07-29T02:36:46;101358.56;;;14.79;77.37
60832;BME280;46665;51.558;-0.448;2022-07-29T02:39:14;101355.03;;;14.73;77.68
60832;BME280;46665;51.558;-0.448;2022-07-29T02:41:46;101350.69;;;14.72;77.86
60832;BME280;46665;51.558;-0.448;2022-07-29T02:44:14;101348.75;;;14.73;77.85
60832;BME280;46665;51.558;-0.448;2022-07-29T02:46:52;101352.53;;;14.77;77.74
60832;BME280;46665;51.558;-0.448;2022-07-29T02:49:25;101356.91;;;14.78;77.85
60832;BME280;46665;51.558;-0.448;2022-07-29T02:52:26;101359.63;;;14.78;78.04
60832;BME280;46665;51.558;-0.448;2022-07-29T02:55:00;101358.38;;;14.70;78.46
60832;BME280;46665;51.558;-0.448;2022-07-29T02:58:21;101353.53;;;14.62;78.64
60832;BME280;46665;51.558;-0.448;2022-07-29T03:00:25;101350.88;;;14.52;79.22
60832;BME280;46665;51.558;-0.448;2022-07-29T03:02:53;101354.78;;;14.46;79.33
60832;BME280;46665;51.558;-0.448;2022-07-29T03:05:20;101349.09;;;14.37;80.27
60832;BME280;46665;51.558;-0.448;2022-07-29T03:07:52;101354.88;;;14.36;79.98
60832;BME280;46665;51.558;-0.448;2022-07-29T03:10:20;101363.97;;;14.31;80.36
60832;BME280;46665;51.558;-0.448;2022-07-29T03:12:47;101358.22;;;14.27;80.74
60832;BME280;46665;51.558;-0.448;2022-07-29T03:15:12;101358.53;;;14.26;81.08
60832;BME280;46665;51.558;-0.448;2022-07-29T03:17:39;101356.06;;;14.24;80.58
60832;BME280;46665;51.558;-0.448;2022-07-29T03:20:06;101354.78;;;14.17;81.28
60832;BME280;46665;51.558;-0.448;2022-07-29T03:22:32;101353.44;;;14.14;80.80
60832;BME280;46665;51.558;-0.448;2022-07-29T03:25:07;101346.84;;;14.15;80.98
60832;BME280;46665;51.558;-0.448;2022-07-29T03:27:34;101350.69;;;14.14;80.99
60832;BME280;46665;51.558;-0.448;2022-07-29T03:29:59;101348.00;;;14.09;80.89
60832;BME280;46665;51.558;-0.448;2022-07-29T03:32:24;101351.09;;;13.97;81.23
60832;BME280;46665;51.558;-0.448;2022-07-29T03:34:50;101356.06;;;13.95;81.48
60832;BME280;46665;51.558;-0.448;2022-07-29T03:37:15;101346.31;;;13.84;82.29
60832;BME280;46665;51.558;-0.448;2022-07-29T03:39:41;101340.59;;;13.80;82.24
60832;BME280;46665;51.558;-0.448;2022-07-29T03:42:10;101342.50;;;13.80;82.04
60832;BME280;46665;51.558;-0.448;2022-07-29T03:44:38;101351.81;;;13.79;82.48
60832;BME280;46665;51.558;-0.448;2022-07-29T03:47:05;101339.28;;;13.73;82.83
60832;BME280;46665;51.558;-0.448;2022-07-29T03:49:32;101339.59;;;13.66;83.45
60832;BME280;46665;51.558;-0.448;2022-07-29T03:51:59;101351.38;;;13.61;83.32
60832;BME280;46665;51.558;-0.448;2022-07-29T03:54:25;101349.50;;;13.57;83.60
60832;BME280;46665;51.558;-0.448;2022-07-29T03:56:52;101355.50;;;13.59;83.54
60832;BME280;46665;51.558;-0.448;2022-07-29T03:59:17;101360.75;;;13.55;83.71
60832;BME280;46665;51.558;-0.448;2022-07-29T04:01:45;101365.63;;;13.58;83.84
60832;BME280;46665;51.558;-0.448;2022-07-29T04:04:11;101352.00;;;13.53;83.98
60832;BME280;46665;51.558;-0.448;2022-07-29T04:06:44;101354.72;;;13.53;83.73
60832;BME280;46665;51.558;-0.448;2022-07-29T04:09:11;101358.00;;;13.55;83.76
60832;BME280;46665;51.558;-0.448;2022-07-29T04:11:41;101352.84;;;13.49;84.32
60832;BME280;46665;51.558;-0.448;2022-07-29T04:14:06;101359.44;;;13.48;84.15
60832;BME280;46665;51.558;-0.448;2022-07-29T04:16:32;101360.22;;;13.48;83.94
60832;BME280;46665;51.558;-0.448;2022-07-29T04:18:58;101364.63;;;13.44;84.08
60832;BME280;46665;51.558;-0.448;2022-07-29T04:21:23;101367.66;;;13.42;84.53
60832;BME280;46665;51.558;-0.448;2022-07-29T04:23:49;101363.00;;;13.43;84.49
60832;BME280;46665;51.558;-0.448;2022-07-29T04:26:16;101366.84;;;13.42;84.93
60832;BME280;46665;51.558;-0.448;2022-07-29T04:28:41;101376.41;;;13.44;84.59
60832;BME280;46665;51.558;-0.448;2022-07-29T04:31:08;101377.22;;;13.45;84.41
60832;BME280;46665;51.558;-0.448;2022-07-29T04:33:34;101367.09;;;13.46;84.74
60832;BME280;46665;51.558;-0.448;2022-07-29T04:35:59;101370.59;;;13.51;84.66
60832;BME280;46665;51.558;-0.448;2022-07-29T04:38:25;101373.31;;;13.56;84.61
60832;BME280;46665;51.558;-0.448;2022-07-29T04:40:50;101362.63;;;13.60;84.46
60832;BME280;46665;51.558;-0.448;2022-07-29T04:43:16;101367.75;;;13.66;84.16
60832;BME280;46665;51.558;-0.448;2022-07-29T04:45:42;101363.06;;;13.72;84.13
60832;BME280;46665;51.558;-0.448;2022-07-29T04:48:07;101365.25;;;13.75;83.83
60832;BME280;46665;51.558;-0.448;2022-07-29T04:50:33;101360.03;;;13.79;83.86
60832;BME280;46665;51.558;-0.448;2022-07-29T04:52:58;101359.16;;;13.83;83.72
60832;BME280;46665;51.558;-0.448;2022-07-29T04:55:23;101365.72;;;13.87;83.71
60832;BME280;46665;51.558;-0.448;2022-07-29T04:57:50;101359.38;;;13.92;83.38
60832;BME280;46665;51.558;-0.448;2022-07-29T05:00:15;101359.03;;;13.99;83.04
60832;BME280;46665;51.558;-0.448;2022-07-29T05:02:41;101363.09;;;14.06;83.38
60832;BME280;46665;51.558;-0.448;2022-07-29T05:05:06;101362.47;;;14.15;82.59
60832;BME280;46665;51.558;-0.448;2022-07-29T05:07:32;101352.81;;;14.22;82.39
60832;BME280;46665;51.558;-0.448;2022-07-29T05:09:58;101357.69;;;14.30;82.49
60832;BME280;46665;51.558;-0.448;2022-07-29T05:12:24;101351.25;;;14.40;81.56
60832;BME280;46665;51.558;-0.448;2022-07-29T05:14:49;101361.59;;;14.48;81.84
60832;BME280;46665;51.558;-0.448;2022-07-29T05:17:15;101353.59;;;14.52;81.87
60832;BME280;46665;51.558;-0.448;2022-07-29T05:19:40;101355.50;;;14.57;82.13
60832;BME280;46665;51.558;-0.448;2022-07-29T05:22:06;101359.81;;;14.63;81.46
60832;BME280;46665;51.558;-0.448;2022-07-29T05:24:31;101368.28;;;14.66;81.72
60832;BME280;46665;51.558;-0.448;2022-07-29T05:26:56;101370.13;;;14.71;81.98
60832;BME280;46665;51.558;-0.448;2022-07-29T05:29:22;101375.28;;;14.78;81.70
60832;BME280;46665;51.558;-0.448;2022-07-29T05:31:47;101369.66;;;14.88;81.55
60832;BME280;46665;51.558;-0.448;2022-07-29T05:34:12;101373.16;;;14.93;81.19
60832;BME280;46665;51.558;-0.448;2022-07-29T05:36:38;101373.41;;;14.97;81.71
60832;BME280;46665;51.558;-0.448;2022-07-29T05:39:03;101374.16;;;15.03;81.35
60832;BME280;46665;51.558;-0.448;2022-07-29T05:41:31;101378.44;;;15.09;81.67
60832;BME280;46665;51.558;-0.448;2022-07-29T05:43:57;101385.19;;;15.16;81.20
60832;BME280;46665;51.558;-0.448;2022-07-29T05:46:23;101378.03;;;15.21;81.41
60832;BME280;46665;51.558;-0.448;2022-07-29T05:48:49;101386.72;;;15.28;81.52
60832;BME280;46665;51.558;-0.448;2022-07-29T05:51:14;101382.56;;;15.30;80.95
60832;BME280;46665;51.558;-0.448;2022-07-29T05:53:40;101382.72;;;15.39;80.91
60832;BME280;46665;51.558;-0.448;2022-07-29T05:56:06;101380.66;;;15.50;80.95
60832;BME280;46665;51.558;-0.448;2022-07-29T05:58:32;101383.63;;;15.53;80.37
60832;BME280;46665;51.558;-0.448;2022-07-29T06:00:58;101385.47;;;15.58;79.75
60832;BME280;46665;51.558;-0.448;2022-07-29T06:03:27;101387.81;;;15.65;80.10
60832;BME280;46665;51.558;-0.448;2022-07-29T06:05:52;101392.47;;;15.69;80.04
60832;BME280;46665;51.558;-0.448;2022-07-29T06:08:18;101386.41;;;15.72;80.38
60832;BME280;46665;51.558;-0.448;2022-07-29T06:10:43;101386.69;;;15.71;80.21
60832;BME280;46665;51.558;-0.448;2022-07-29T06:13:09;101395.28;;;15.83;79.85
60832;BME280;46665;51.558;-0.448;2022-07-29T06:15:34;101391.66;;;15.88;79.87
60832;BME280;46665;51.558;-0.448;2022-07-29T06:18:00;101393.72;;;15.96;80.46
60832;BME280;46665;51.558;-0.448;2022-07-29T06:20:27;101402.38;;;16.03;79.54
60832;BME280;46665;51.558;-0.448;2022-07-29T06:22:54;101403.31;;;16.12;79.55
60832;BME280;46665;51.558;-0.448;2022-07-29T06:25:20;101401.00;;;16.19;79.19
60832;BME280;46665;51.558;-0.448;2022-07-29T06:27:45;101408.88;;;16.26;79.24
60832;BME280;46665;51.558;-0.448;2022-07-29T06:30:11;101402.25;;;16.27;78.84
60832;BME280;46665;51.558;-0.448;2022-07-29T06:32:37;101400.22;;;16.33;78.93
60832;BME280;46665;51.558;-0.448;2022-07-29T06:35:02;101405.03;;;16.41;78.90
60832;BME280;46665;51.558;-0.448;2022-07-29T06:37:28;101401.88;;;16.47;78.82
60832;BME280;46665;51.558;-0.448;2022-07-29T06:39:53;101403.91;;;16.56;78.99
60832;BME280;46665;51.558;-0.448;2022-07-29T06:42:43;101404.88;;;16.65;79.07
60832;BME280;46665;51.558;-0.448;2022-07-29T06:45:10;101399.59;;;16.68;78.29
60832;BME280;46665;51.558;-0.448;2022-07-29T06:47:35;101400.53;;;16.78;77.72
60832;BME280;46665;51.558;-0.448;2022-07-29T06:50:01;101396.56;;;16.84;77.60
60832;BME280;46665;51.558;-0.448;2022-07-29T06:52:26;101403.59;;;16.90;77.32
60832;BME280;46665;51.558;-0.448;2022-07-29T06:54:51;101404.28;;;16.96;77.45
60832;BME280;46665;51.558;-0.448;2022-07-29T06:57:17;101410.50;;;17.01;77.02
60832;BME280;46665;51.558;-0.448;2022-07-29T06:59:45;101406.22;;;17.09;77.17
60832;BME280;46665;51.558;-0.448;2022-07-29T07:02:10;101413.03;;;17.11;77.57
60832;BME280;46665;51.558;-0.448;2022-07-29T07:04:35;101411.31;;;17.16;77.13
60832;BME280;46665;51.558;-0.448;2022-07-29T07:07:01;101415.09;;;17.20;77.50
60832;BME280;46665;51.558;-0.448;2022-07-29T07:09:26;101412.75;;;17.27;76.94
60832;BME280;46665;51.558;-0.448;2022-07-29T07:11:52;101409.56;;;17.33;76.77
60832;BME280;46665;51.558;-0.448;2022-07-29T07:14:17;101413.22;;;17.43;76.99
60832;BME280;46665;51.558;-0.448;2022-07-29T07:16:43;101407.78;;;17.51;76.44
60832;BME280;46665;51.558;-0.448;2022-07-29T07:19:08;101406.75;;;17.61;75.97
60832;BME280;46665;51.558;-0.448;2022-07-29T07:21:35;101411.03;;;17.67;76.15
60832;BME280;46665;51.558;-0.448;2022-07-29T07:24:01;101418.22;;;17.77;75.71
60832;BME280;46665;51.558;-0.448;2022-07-29T07:26:27;101416.50;;;17.81;75.85
60832;BME280;46665;51.558;-0.448;2022-07-29T07:31:29;101424.09;;;17.98;74.25
60832;BME280;46665;51.558;-0.448;2022-07-29T07:33:55;101420.41;;;18.03;73.99
60832;BME280;46665;51.558;-0.448;2022-07-29T07:36:20;101418.16;;;18.05;74.39
60832;BME280;46665;51.558;-0.448;2022-07-29T07:38:46;101420.28;;;18.08;74.43
60832;BME280;46665;51.558;-0.448;2022-07-29T07:41:11;101416.91;;;18.11;73.65
60832;BME280;46665;51.558;-0.448;2022-07-29T07:43:36;101410.25;;;18.12;73.89
60832;BME280;46665;51.558;-0.448;2022-07-29T07:46:04;101412.09;;;18.16;73.87
60832;BME280;46665;51.558;-0.448;2022-07-29T07:48:29;101413.41;;;18.19;73.43
60832;BME280;46665;51.558;-0.448;2022-07-29T07:50:55;101415.00;;;18.20;72.30
60832;BME280;46665;51.558;-0.448;2022-07-29T07:53:21;101408.91;;;18.23;72.06
60832;BME280;46665;51.558;-0.448;2022-07-29T07:55:46;101412.13;;;18.25;70.62
60832;BME280;46665;51.558;-0.448;2022-07-29T07:58:12;101416.91;;;18.33;70.05
60832;BME280;46665;51.558;-0.448;2022-07-29T08:00:37;101424.84;;;18.35;69.41
60832;BME280;46665;51.558;-0.448;2022-07-29T08:03:03;101422.44;;;18.42;69.42
60832;BME280;46665;51.558;-0.448;2022-07-29T08:05:28;101421.50;;;18.47;67.44
60832;BME280;46665;51.558;-0.448;2022-07-29T08:07:54;101427.19;;;18.50;66.77
60832;BME280;46665;51.558;-0.448;2022-07-29T08:10:20;101426.25;;;18.55;66.40
60832;BME280;46665;51.558;-0.448;2022-07-29T08:13:06;101421.75;;;18.59;65.96
60832;BME280;46665;51.558;-0.448;2022-07-29T08:15:32;101420.47;;;18.65;66.15
60832;BME280;46665;51.558;-0.448;2022-07-29T08:17:58;101422.28;;;18.70;66.20
60832;BME280;46665;51.558;-0.448;2022-07-29T08:20:23;101427.16;;;18.73;66.21
60832;BME280;46665;51.558;-0.448;2022-07-29T08:22:49;101427.03;;;18.78;65.69
60832;BME280;46665;51.558;-0.448;2022-07-29T08:25:15;101426.09;;;18.82;65.60
60832;BME280;46665;51.558;-0.448;2022-07-29T08:27:40;101426.44;;;18.90;64.68
60832;BME280;46665;51.558;-0.448;2022-07-29T08:30:06;101432.13;;;18.93;63.82
60832;BME280;46665;51.558;-0.448;2022-07-29T08:32:32;101428.06;;;18.91;63.68
60832;BME280;46665;51.558;-0.448;2022-07-29T08:34:57;101429.72;;;18.92;63.92
60832;BME280;46665;51.558;-0.448;2022-07-29T08:37:22;101429.22;;;18.90;62.76
60832;BME280;46665;51.558;-0.448;2022-07-29T08:39:48;101433.94;;;18.98;62.96
60832;BME280;46665;51.558;-0.448;2022-07-29T08:42:13;101429.41;;;19.02;62.77
60832;BME280;46665;51.558;-0.448;2022-07-29T08:44:39;101422.47;;;19.04;62.37
60832;BME280;46665;51.558;-0.448;2022-07-29T08:47:04;101423.44;;;19.09;62.28
60832;BME280;46665;51.558;-0.448;2022-07-29T08:49:33;101427.53;;;19.20;61.83
60832;BME280;46665;51.558;-0.448;2022-07-29T08:51:59;101417.97;;;19.26;61.30
60832;BME280;46665;51.558;-0.448;2022-07-29T08:54:25;101406.28;;;19.29;60.66
60832;BME280;46665;51.558;-0.448;2022-07-29T08:56:52;101420.25;;;19.33;60.93
60832;BME280;46665;51.558;-0.448;2022-07-29T08:59:20;101416.84;;;19.36;60.05
60832;BME280;46665;51.558;-0.448;2022-07-29T09:01:46;101417.50;;;19.41;59.58
60832;BME280;46665;51.558;-0.448;2022-07-29T09:04:13;101417.34;;;19.46;59.08
60832;BME280;46665;51.558;-0.448;2022-07-29T09:06:46;101417.53;;;19.50;58.52
60832;BME280;46665;51.558;-0.448;2022-07-29T09:09:13;101417.69;;;19.54;59.18
60832;BME280;46665;51.558;-0.448;2022-07-29T09:11:40;101415.25;;;19.61;59.10
60832;BME280;46665;51.558;-0.448;2022-07-29T09:14:06;101415.47;;;19.73;59.10
60832;BME280;46665;51.558;-0.448;2022-07-29T09:16:54;101423.59;;;19.78;56.68
60832;BME280;46665;51.558;-0.448;2022-07-29T09:19:31;101420.31;;;19.85;56.33
60832;BME280;46665;51.558;-0.448;2022-07-29T09:21:59;101412.69;;;19.90;55.52
60832;BME280;46665;51.558;-0.448;2022-07-29T09:24:41;101419.00;;;20.00;54.54
60832;BME280;46665;51.558;-0.448;2022-07-29T09:27:11;101414.78;;;20.02;53.76
60832;BME280;46665;51.558;-0.448;2022-07-29T09:29:37;101409.75;;;20.04;54.26
60832;BME280;46665;51.558;-0.448;2022-07-29T09:32:07;101416.59;;;20.16;54.28
60832;BME280;46665;51.558;-0.448;2022-07-29T09:34:33;101417.53;;;20.20;53.32
60832;BME280;46665;51.558;-0.448;2022-07-29T09:36:59;101406.97;;;20.22;53.50
60832;BME280;46665;51.558;-0.448;2022-07-29T09:41:56;101410.53;;;20.31;53.95
60832;BME280;46665;51.558;-0.448;2022-07-29T09:44:23;101406.59;;;20.41;53.31
60832;BME280;46665;51.558;-0.448;2022-07-29T09:47:00;101408.72;;;20.44;53.37
60832;BME280;46665;51.558;-0.448;2022-07-29T09:49:36;101411.78;;;20.51;53.48
60832;BME280;46665;51.558;-0.448;2022-07-29T09:52:15;101413.06;;;20.62;52.42
60832;BME280;46665;51.558;-0.448;2022-07-29T09:54:40;101420.53;;;20.70;52.02
60832;BME280;46665;51.558;-0.448;2022-07-29T09:57:08;101415.78;;;20.80;51.42
60832;BME280;46665;51.558;-0.448;2022-07-29T09:59:38;101418.50;;;20.88;50.45
60832;BME280;46665;51.558;-0.448;2022-07-29T10:02:12;101417.38;;;20.89;50.16
60832;BME280;46665;51.558;-0.448;2022-07-29T10:04:42;101407.63;;;20.83;49.16
60832;BME280;46665;51.558;-0.448;2022-07-29T10:07:08;101408.09;;;20.85;49.45
60832;BME280;46665;51.558;-0.448;2022-07-29T10:09:34;101406.13;;;20.94;49.80
60832;BME280;46665;51.558;-0.448;2022-07-29T10:12:08;101404.63;;;20.97;49.54
60832;BME280;46665;51.558;-0.448;2022-07-29T10:14:35;101405.94;;;20.99;49.93
60832;BME280;46665;51.558;-0.448;2022-07-29T10:17:01;101406.66;;;21.09;48.70
60832;BME280;46665;51.558;-0.448;2022-07-29T10:19:29;101403.06;;;21.17;48.61
60832;BME280;46665;51.558;-0.448;2022-07-29T10:21:59;101408.41;;;21.22;48.28
60832;BME280;46665;51.558;-0.448;2022-07-29T10:24:26;101405.09;;;21.29;48.53
60832;BME280;46665;51.558;-0.448;2022-07-29T10:26:58;101403.25;;;21.41;48.36
60832;BME280;46665;51.558;-0.448;2022-07-29T10:29:24;101404.69;;;21.48;47.90
60832;BME280;46665;51.558;-0.448;2022-07-29T10:32:24;101401.72;;;21.53;48.10
60832;BME280;46665;51.558;-0.448;2022-07-29T10:35:27;101399.22;;;21.60;48.21
60832;BME280;46665;51.558;-0.448;2022-07-29T10:38:10;101400.50;;;21.62;47.99
60832;BME280;46665;51.558;-0.448;2022-07-29T10:43:29;101401.31;;;21.63;46.12
60832;BME280;46665;51.558;-0.448;2022-07-29T10:45:59;101401.03;;;21.56;46.70
60832;BME280;46665;51.558;-0.448;2022-07-29T10:48:26;101405.22;;;21.62;46.81
60832;BME280;46665;51.558;-0.448;2022-07-29T10:50:53;101398.34;;;21.68;46.67
60832;BME280;46665;51.558;-0.448;2022-07-29T10:53:46;101402.09;;;21.84;46.91
60832;BME280;46665;51.558;-0.448;2022-07-29T10:56:32;101401.88;;;21.90;46.81
60832;BME280;46665;51.558;-0.448;2022-07-29T11:01:51;101395.97;;;22.12;46.97
60832;BME280;46665;51.558;-0.448;2022-07-29T11:07:10;101401.03;;;22.31;45.95
60832;BME280;46665;51.558;-0.448;2022-07-29T11:09:35;101408.78;;;22.38;45.68
60832;BME280;46665;51.558;-0.448;2022-07-29T11:12:01;101399.66;;;22.37;45.13
60832;BME280;46665;51.558;-0.448;2022-07-29T11:17:16;101404.88;;;22.39;46.01
60832;BME280;46665;51.558;-0.448;2022-07-29T11:19:42;101405.34;;;22.41;44.26
60832;BME280;46665;51.558;-0.448;2022-07-29T11:22:09;101400.38;;;22.46;45.34
60832;BME280;46665;51.558;-0.448;2022-07-29T11:24:35;101410.22;;;22.56;44.82
60832;BME280;46665;51.558;-0.448;2022-07-29T11:27:14;101403.28;;;22.62;45.35
60832;BME280;46665;51.558;-0.448;2022-07-29T11:29:57;101417.97;;;22.63;45.12
60832;BME280;46665;51.558;-0.448;2022-07-29T11:32:24;101407.81;;;22.79;44.60
60832;BME280;46665;51.558;-0.448;2022-07-29T11:35:23;101412.81;;;22.98;44.89
60832;BME280;46665;51.558;-0.448;2022-07-29T11:38:27;101416.41;;;23.23;43.65
60832;BME280;46665;51.558;-0.448;2022-07-29T11:41:22;101404.94;;;23.37;42.14
60832;BME280;46665;51.558;-0.448;2022-07-29T11:43:59;101398.09;;;23.34;42.55
60832;BME280;46665;51.558;-0.448;2022-07-29T11:46:44;101401.00;;;23.26;42.41
60832;BME280;46665;51.558;-0.448;2022-07-29T11:49:26;101392.19;;;23.36;43.40
60832;BME280;46665;51.558;-0.448;2022-07-29T11:51:53;101401.69;;;23.47;41.76
60832;BME280;46665;51.558;-0.448;2022-07-29T11:54:25;101396.69;;;23.53;42.21
60832;BME280;46665;51.558;-0.448;2022-07-29T11:56:54;101394.22;;;23.64;42.65
60832;BME280;46665;51.558;-0.448;2022-07-29T11:59:21;101396.28;;;23.67;42.12
60832;BME280;46665;51.558;-0.448;2022-07-29T12:01:54;101401.75;;;23.63;41.80
60832;BME280;46665;51.558;-0.448;2022-07-29T12:04:20;101395.00;;;23.76;42.51
60832;BME280;46665;51.558;-0.448;2022-07-29T12:06:52;101395.06;;;23.92;41.57
60832;BME280;46665;51.558;-0.448;2022-07-29T12:09:18;101393.78;;;23.90;41.51
60832;BME280;46665;51.558;-0.448;2022-07-29T12:11:45;101399.81;;;23.92;42.22
60832;BME280;46665;51.558;-0.448;2022-07-29T12:14:31;101398.31;;;24.10;40.04
60832;BME280;46665;51.558;-0.448;2022-07-29T12:16:58;101389.16;;;23.94;39.80
60832;BME280;46665;51.558;-0.448;2022-07-29T12:19:24;101397.03;;;23.92;41.25
60832;BME280;46665;51.558;-0.448;2022-07-29T12:21:54;101391.44;;;23.76;40.65
60832;BME280;46665;51.558;-0.448;2022-07-29T12:24:21;101391.00;;;23.49;40.68
60832;BME280;46665;51.558;-0.448;2022-07-29T12:29:19;101371.59;;;23.77;41.03
60832;BME280;46665;51.558;-0.448;2022-07-29T12:31:45;101376.94;;;23.83;40.86
60832;BME280;46665;51.558;-0.448;2022-07-29T12:34:13;101373.50;;;23.73;41.04
60832;BME280;46665;51.558;-0.448;2022-07-29T12:36:43;101378.25;;;23.73;41.69
60832;BME280;46665;51.558;-0.448;2022-07-29T12:39:09;101374.16;;;23.70;42.13
60832;BME280;46665;51.558;-0.448;2022-07-29T12:41:35;101369.28;;;23.79;42.02
60832;BME280;46665;51.558;-0.448;2022-07-29T12:44:01;101370.97;;;23.96;42.08
60832;BME280;46665;51.558;-0.448;2022-07-29T12:46:26;101361.50;;;24.13;42.04
60832;BME280;46665;51.558;-0.448;2022-07-29T12:48:53;101363.03;;;24.27;40.89
60832;BME280;46665;51.558;-0.448;2022-07-29T12:51:37;101371.91;;;24.32;39.90
60832;BME280;46665;51.558;-0.448;2022-07-29T12:54:03;101363.19;;;24.46;38.85
60832;BME280;46665;51.558;-0.448;2022-07-29T12:56:29;101370.59;;;24.58;39.51
60832;BME280;46665;51.558;-0.448;2022-07-29T12:58:55;101362.16;;;24.70;39.20
60832;BME280;46665;51.558;-0.448;2022-07-29T13:01:20;101349.72;;;24.64;37.82
60832;BME280;46665;51.558;-0.448;2022-07-29T13:03:58;101359.84;;;24.72;38.60
60832;BME280;46665;51.558;-0.448;2022-07-29T13:06:44;101356.44;;;24.47;38.28
60832;BME280;46665;51.558;-0.448;2022-07-29T13:09:14;101361.25;;;24.34;37.65
60832;BME280;46665;51.558;-0.448;2022-07-29T13:11:49;101359.38;;;24.38;38.59
60832;BME280;46665;51.558;-0.448;2022-07-29T13:14:34;101365.84;;;24.58;38.40
60832;BME280;46665;51.558;-0.448;2022-07-29T13:17:16;101363.78;;;24.71;37.79
60832;BME280;46665;51.558;-0.448;2022-07-29T13:20:05;101361.28;;;24.82;38.23
60832;BME280;46665;51.558;-0.448;2022-07-29T13:22:31;101358.44;;;24.98;37.66